Time;durP1;ratioP1;P1;durP2;ratioP2;P2;SDS_P1;SDS_P2;PMS_P1;PMS_P2;Temp;Humidity;BMP_temperature;BMP_pressure;BME280_temperature;BME280_humidity;BME280_pressure;Samples;Min_cycle;Max_cycle;Signal;HPM_P1;HPM_P2
2022/12/24 00:01:35;;;;;;;16.60;11.45;;;;;;;4.18;100.00;97981.47;5039527;28;20064;-68
2022/12/24 00:04:19;;;;;;;16.10;10.23;;;;;;;4.17;100.00;97990.19;5048062;28;20044;-68
2022/12/24 00:07:04;;;;;;;17.98;11.30;;;;;;;4.19;100.00;97990.91;5049319;28;20124;-67
2022/12/24 00:09:49;;;;;;;22.05;12.95;;;;;;;4.15;100.00;97996.38;5049426;28;20080;-68
2022/12/24 00:12:34;;;;;;;21.92;13.48;;;;;;;4.19;100.00;97998.69;5046340;28;20041;-67
2022/12/24 00:15:20;;;;;;;18.58;12.65;;;;;;;4.15;100.00;97998.97;5049410;28;20036;-67
2022/12/24 00:18:04;;;;;;;19.13;13.18;;;;;;;4.15;100.00;98002.41;5038030;28;20075;-68
2022/12/24 00:20:50;;;;;;;22.92;14.88;;;;;;;4.09;100.00;97989.78;5046363;28;20477;-67
2022/12/24 00:23:37;;;;;;;19.33;12.88;;;;;;;4.18;100.00;98002.22;5048048;28;20081;-67
2022/12/24 00:26:24;;;;;;;21.23;13.45;;;;;;;4.26;100.00;98008.75;5053113;28;20126;-69
2022/12/24 00:29:10;;;;;;;19.35;12.52;;;;;;;4.28;100.00;98002.56;5052192;28;20041;-68
2022/12/24 00:31:55;;;;;;;24.65;14.57;;;;;;;4.22;100.00;97982.16;5051795;28;20400;-69
2022/12/24 00:34:40;;;;;;;34.80;19.95;;;;;;;4.25;100.00;98004.47;5052579;28;20037;-68
2022/12/24 00:37:24;;;;;;;25.10;14.95;;;;;;;4.15;100.00;98010.19;5052045;28;20037;-68
2022/12/24 00:40:09;;;;;;;24.00;15.57;;;;;;;4.22;100.00;98015.88;5052370;28;20048;-68
2022/12/24 00:42:54;;;;;;;26.90;16.10;;;;;;;4.18;100.00;98014.34;5051741;28;20068;-68
2022/12/24 00:45:39;;;;;;;18.23;11.35;;;;;;;4.22;100.00;98026.25;5052843;28;20037;-68
2022/12/24 00:48:24;;;;;;;19.85;13.25;;;;;;;4.36;100.00;98028.06;5040446;28;20041;-68
2022/12/24 00:51:08;;;;;;;18.60;11.88;;;;;;;4.42;100.00;98024.31;5052224;28;20583;-69
2022/12/24 00:53:53;;;;;;;18.75;12.00;;;;;;;4.40;100.00;98028.75;5052762;28;20140;-68
2022/12/24 00:56:37;;;;;;;20.38;12.90;;;;;;;4.27;100.00;98032.03;5041525;28;20372;-67
2022/12/24 00:59:22;;;;;;;16.50;10.90;;;;;;;4.29;100.00;98034.53;5052319;28;20040;-67
2022/12/24 01:02:06;;;;;;;17.10;10.98;;;;;;;4.26;100.00;98019.97;5052304;28;20040;-67
2022/12/24 01:05:09;;;;;;;18.65;11.80;;;;;;;4.25;100.00;98018.28;5051192;28;20391;-68
2022/12/24 01:07:54;;;;;;;21.02;13.35;;;;;;;4.25;100.00;98018.28;5040768;28;20385;-68
2022/12/24 01:10:39;;;;;;;18.45;11.90;;;;;;;4.21;100.00;98005.59;5051484;28;20163;-68
2022/12/24 01:13:25;;;;;;;15.38;10.55;;;;;;;4.16;100.00;98006.66;5051345;28;20044;-67
2022/12/24 01:16:19;;;;;;;15.70;11.07;;;;;;;4.38;100.00;98004.66;5050947;28;20052;-68
2022/12/24 01:19:04;;;;;;;17.30;11.10;;;;;;;4.52;100.00;98007.31;5051603;28;20450;-68
2022/12/24 01:21:49;;;;;;;16.15;9.27;;;;;;;5.16;100.00;98002.88;5050703;28;20460;-68
2022/12/24 01:24:33;;;;;;;11.75;7.45;;;;;;;5.54;100.00;97991.16;5041566;28;20049;-67
2022/12/24 01:27:18;;;;;;;10.95;6.95;;;;;;;5.96;100.00;97990.38;5036581;28;20036;-68
2022/12/24 01:30:07;;;;;;;8.43;5.53;;;;;;;6.31;100.00;97986.53;5050543;28;20098;-67
2022/12/24 01:32:52;;;;;;;9.25;5.00;;;;;;;6.49;100.00;97990.56;5051971;28;20175;-67
2022/12/24 01:35:41;;;;;;;9.68;4.70;;;;;;;6.70;100.00;97995.31;5039563;28;20037;-68
2022/12/24 01:38:25;;;;;;;6.28;4.05;;;;;;;6.94;100.00;97980.78;5051520;28;20116;-68
2022/12/24 01:44:34;;;;;;;7.00;4.15;;;;;;;7.20;100.00;97980.81;5045249;28;20083;-68
2022/12/24 01:47:28;;;;;;;5.55;3.35;;;;;;;7.30;100.00;97988.84;5042722;28;20103;-67
2022/12/24 01:50:16;;;;;;;8.20;4.20;;;;;;;7.37;100.00;97988.34;5038210;28;20481;-67
2022/12/24 01:53:05;;;;;;;4.75;3.40;;;;;;;7.41;100.00;97991.56;5051295;28;20419;-68
2022/12/24 01:55:51;;;;;;;4.03;2.83;;;;;;;7.39;100.00;97998.66;5050242;28;20053;-68
2022/12/24 01:58:36;;;;;;;5.03;2.50;;;;;;;7.40;100.00;97995.13;5054076;28;20120;-68
2022/12/24 02:01:24;;;;;;;4.25;2.80;;;;;;;7.39;100.00;97999.47;5049817;28;20060;-68
2022/12/24 02:04:25;;;;;;;4.32;3.13;;;;;;;7.36;100.00;97997.09;5049708;28;20500;-68
2022/12/24 02:07:09;;;;;;;4.93;3.28;;;;;;;7.36;100.00;98017.13;5050888;28;20079;-69
2022/12/24 02:09:57;;;;;;;3.85;2.33;;;;;;;7.39;100.00;98022.13;5078337;28;20049;-68
2022/12/24 02:12:43;;;;;;;4.78;2.72;;;;;;;7.47;100.00;98021.59;5051145;28;20175;-67
2022/12/24 02:15:51;;;;;;;3.38;2.03;;;;;;;7.48;100.00;98018.88;5049954;28;20045;-67
2022/12/24 02:18:45;;;;;;;3.28;2.00;;;;;;;7.51;100.00;98016.06;5050571;28;20045;-67
2022/12/24 02:21:46;;;;;;;3.50;2.30;;;;;;;7.54;100.00;98022.84;5035784;28;20089;-68
2022/12/24 02:24:55;;;;;;;3.90;2.20;;;;;;;7.52;100.00;98022.13;5050742;28;20091;-68
2022/12/24 02:28:01;;;;;;;3.78;2.00;;;;;;;7.54;100.00;98028.03;5044466;28;20046;-68
2022/12/24 02:30:52;;;;;;;3.85;2.17;;;;;;;7.56;100.00;98014.91;5042731;28;20424;-67
2022/12/24 02:33:53;;;;;;;3.67;1.92;;;;;;;7.58;100.00;98026.06;5039467;28;20176;-67
2022/12/24 02:36:43;;;;;;;2.28;1.55;;;;;;;7.60;100.00;98013.78;5038078;28;20480;-68
2022/12/24 02:39:42;;;;;;;2.92;1.65;;;;;;;7.63;100.00;98024.00;5048829;28;20073;-68
2022/12/24 02:42:33;;;;;;;3.25;1.77;;;;;;;7.72;100.00;98030.38;5049814;28;20064;-68
2022/12/24 02:45:28;;;;;;;3.00;1.30;;;;;;;7.73;100.00;98032.03;5050551;28;20051;-68
2022/12/24 02:48:16;;;;;;;2.95;1.15;;;;;;;7.79;100.00;98026.38;5050340;28;20048;-68
2022/12/24 02:51:06;;;;;;;1.60;0.90;;;;;;;7.86;100.00;98029.41;5050649;28;20043;-68
2022/12/24 02:53:51;;;;;;;1.67;1.15;;;;;;;7.86;100.00;98030.25;5050179;28;20084;-68
2022/12/24 02:56:51;;;;;;;2.78;1.08;;;;;;;7.89;100.00;98022.22;5050365;28;20454;-68
2022/12/24 02:59:48;;;;;;;1.67;1.10;;;;;;;7.93;100.00;98033.25;5068668;28;20650;-68
2022/12/24 03:02:50;;;;;;;1.23;0.80;;;;;;;8.03;100.00;98046.47;5050083;28;20068;-68
2022/12/24 03:05:47;;;;;;;2.10;1.08;;;;;;;8.05;100.00;98044.59;5050068;28;20037;-68
2022/12/24 03:08:53;;;;;;;1.73;0.77;;;;;;;8.05;100.00;98042.00;5050143;28;20094;-69
2022/12/24 03:11:44;;;;;;;2.97;0.77;;;;;;;8.05;100.00;98036.78;5043435;28;20053;-68
2022/12/24 03:14:32;;;;;;;0.85;0.55;;;;;;;8.05;100.00;98038.53;5021903;28;20047;-69
2022/12/24 03:17:19;;;;;;;0.85;0.50;;;;;;;8.06;100.00;98032.41;5049779;28;20162;-69
2022/12/24 03:20:06;;;;;;;1.92;0.77;;;;;;;8.16;100.00;98037.81;5049993;28;20051;-68
2022/12/24 03:22:51;;;;;;;1.00;0.40;;;;;;;8.13;100.00;98033.63;5024711;28;20103;-69
2022/12/24 03:25:41;;;;;;;1.00;0.55;;;;;;;8.23;100.00;98045.09;5049806;28;20107;-68
2022/12/24 03:28:27;;;;;;;0.65;0.30;;;;;;;8.26;100.00;98044.88;5048866;28;20053;-68
2022/12/24 03:31:12;;;;;;;0.35;0.25;;;;;;;8.31;100.00;98054.97;5050180;28;20041;-69
2022/12/24 03:33:58;;;;;;;0.30;0.20;;;;;;;8.32;100.00;98051.44;5036264;28;20554;-68
2022/12/24 03:36:44;;;;;;;0.50;0.20;;;;;;;8.31;100.00;98051.53;5049781;28;20116;-68
2022/12/24 03:39:28;;;;;;;1.10;0.30;;;;;;;8.35;100.00;98055.59;5034924;28;20542;-68
2022/12/24 03:42:13;;;;;;;0.52;0.30;;;;;;;8.34;100.00;98061.78;5039539;28;20040;-68
2022/12/24 03:44:57;;;;;;;0.45;0.30;;;;;;;8.33;100.00;98065.31;5048869;28;20124;-68
2022/12/24 03:47:42;;;;;;;0.82;0.17;;;;;;;8.33;100.00;98074.00;5043789;28;20049;-69
2022/12/24 03:50:27;;;;;;;0.43;0.20;;;;;;;8.30;100.00;98082.03;5049555;28;20531;-68
2022/12/24 03:53:12;;;;;;;1.23;0.30;;;;;;;8.26;100.00;98084.03;5048579;28;20098;-68
2022/12/24 03:55:56;;;;;;;0.65;0.22;;;;;;;8.35;100.00;98087.78;5046514;28;20033;-67
2022/12/24 03:58:41;;;;;;;0.63;0.20;;;;;;;8.46;100.00;98094.00;5053762;28;20052;-69
2022/12/24 04:01:26;;;;;;;0.28;0.13;;;;;;;8.52;100.00;98103.19;5053454;28;20065;-69
2022/12/24 04:04:11;;;;;;;1.40;0.10;;;;;;;8.52;100.00;98108.41;5053305;28;20488;-68
2022/12/24 04:06:56;;;;;;;0.80;0.30;;;;;;;8.54;100.00;98104.72;5042047;28;20045;-67
2022/12/24 04:09:41;;;;;;;0.73;0.28;;;;;;;8.61;100.00;98111.22;5052956;28;20049;-67
2022/12/24 04:12:25;;;;;;;0.63;0.17;;;;;;;8.75;100.00;98104.16;5053141;28;20056;-67
2022/12/24 04:15:10;;;;;;;2.05;0.20;;;;;;;8.73;100.00;98109.50;5053323;28;20119;-67
2022/12/24 04:17:55;;;;;;;1.02;0.43;;;;;;;8.75;100.00;98112.00;5041457;28;20099;-67
2022/12/24 04:20:39;;;;;;;0.55;0.20;;;;;;;8.80;100.00;98117.75;5051914;28;20041;-66
2022/12/24 04:23:24;;;;;;;0.52;0.20;;;;;;;8.84;100.00;98116.59;5053079;28;20056;-68
2022/12/24 04:26:11;;;;;;;1.48;0.30;;;;;;;8.86;100.00;98117.28;5052935;28;20510;-67
2022/12/24 04:28:55;;;;;;;0.70;0.20;;;;;;;8.86;100.00;98119.91;5040216;28;20048;-67
2022/12/24 04:31:40;;;;;;;0.60;0.20;;;;;;;8.90;100.00;98130.97;5052639;28;20037;-68
2022/12/24 04:34:26;;;;;;;0.60;0.20;;;;;;;8.96;100.00;98127.09;5037631;28;20525;-67
2022/12/24 04:37:11;;;;;;;0.98;0.30;;;;;;;8.97;100.00;98137.44;5043125;28;20048;-67
2022/12/24 04:39:56;;;;;;;0.38;0.10;;;;;;;9.00;100.00;98141.59;5052858;28;20495;-68
2022/12/24 04:42:41;;;;;;;0.73;0.20;;;;;;;8.99;100.00;98134.72;5052605;28;20068;-68
2022/12/24 04:45:25;;;;;;;0.70;0.30;;;;;;;9.01;100.00;98148.50;5051750;28;20049;-68
2022/12/24 04:48:10;;;;;;;1.35;0.30;;;;;;;9.05;100.00;98149.09;5052673;28;20036;-67
2022/12/24 04:50:55;;;;;;;0.40;0.30;;;;;;;9.04;100.00;98148.25;5052628;28;20102;-68
2022/12/24 04:53:40;;;;;;;0.32;0.17;;;;;;;9.01;100.00;98156.31;5051337;28;20492;-68
2022/12/24 04:56:28;;;;;;;3.15;0.30;;;;;;;9.07;100.00;98157.69;5052175;28;20033;-68
2022/12/24 04:59:13;;;;;;;0.30;0.20;;;;;;;9.03;100.00;98164.91;5052062;28;20036;-68
2022/12/24 05:01:58;;;;;;;0.40;0.30;;;;;;;9.02;100.00;98163.25;5052433;28;20071;-68
2022/12/24 05:04:42;;;;;;;0.70;0.15;;;;;;;9.07;100.00;98162.91;5051488;28;20048;-67
2022/12/24 05:07:27;;;;;;;0.45;0.17;;;;;;;9.05;100.00;98159.56;5052158;28;20477;-68
2022/12/24 05:10:12;;;;;;;0.40;0.20;;;;;;;9.02;100.00;98162.41;5050904;28;20118;-68
2022/12/24 05:12:56;;;;;;;1.05;0.10;;;;;;;9.00;100.00;98159.88;5052373;28;20393;-68
2022/12/24 05:15:43;;;;;;;0.57;0.15;;;;;;;9.04;100.00;98171.78;5051696;28;20037;-68
2022/12/24 05:18:28;;;;;;;0.80;0.20;;;;;;;9.14;100.00;98173.75;5052270;28;20049;-68
2022/12/24 05:21:16;;;;;;;0.40;0.20;;;;;;;9.10;100.00;98175.75;5040471;28;20037;-68
2022/12/24 05:27:04;;;;;;;0.68;0.30;;;;;;;9.02;100.00;98181.53;5051796;28;20047;-68
2022/12/24 05:29:48;;;;;;;0.52;0.20;;;;;;;9.01;100.00;98186.88;5051835;28;20546;-69
2022/12/24 05:32:33;;;;;;;1.40;0.40;;;;;;;9.04;100.00;98173.56;5041158;28;20529;-68
2022/12/24 05:35:19;;;;;;;0.80;0.30;;;;;;;9.02;100.00;98178.91;5051512;28;20245;-68
2022/12/24 05:38:04;;;;;;;0.77;0.20;;;;;;;8.97;100.00;98181.00;5037599;28;20047;-68
2022/12/24 05:40:48;;;;;;;1.13;0.28;;;;;;;8.97;100.00;98186.25;5051864;28;20041;-67
2022/12/24 05:43:33;;;;;;;0.68;0.30;;;;;;;8.92;100.00;98190.94;5051238;28;20416;-68
2022/12/24 05:46:19;;;;;;;0.93;0.28;;;;;;;8.85;100.00;98182.72;5048722;28;20048;-68
2022/12/24 05:49:04;;;;;;;0.50;0.25;;;;;;;8.79;100.00;98190.97;5044266;28;20094;-68
2022/12/24 05:51:49;;;;;;;0.60;0.20;;;;;;;8.77;100.00;98196.31;5040221;28;20120;-68
2022/12/24 05:54:33;;;;;;;1.30;0.30;;;;;;;8.81;100.00;98213.47;5050029;28;20040;-68
2022/12/24 05:57:18;;;;;;;0.70;0.30;;;;;;;8.78;100.00;98223.28;5051083;28;20431;-68
2022/12/24 06:00:03;;;;;;;2.45;0.30;;;;;;;8.74;100.00;98228.72;5051431;28;20045;-68
2022/12/24 06:02:56;;;;;;;1.05;0.20;;;;;;;8.74;100.00;98228.72;5037766;28;20065;-68
2022/12/24 06:05:41;;;;;;;0.98;0.47;;;;;;;8.74;100.00;98238.31;5051029;28;20124;-67
2022/12/24 06:08:27;;;;;;;0.30;0.20;;;;;;;8.76;100.00;98244.28;5050263;28;20041;-68
2022/12/24 06:11:14;;;;;;;0.80;0.22;;;;;;;8.77;100.00;98240.72;5050133;28;20095;-67
2022/12/24 06:13:58;;;;;;;0.43;0.13;;;;;;;8.69;100.00;98243.03;5049729;28;20061;-68
2022/12/24 06:16:43;;;;;;;0.50;0.30;;;;;;;8.63;100.00;98254.75;5050748;28;20155;-67
2022/12/24 06:19:28;;;;;;;0.60;0.22;;;;;;;8.66;100.00;98241.47;5038714;28;20053;-68
2022/12/24 06:22:16;;;;;;;0.52;0.20;;;;;;;8.63;100.00;98247.72;5049560;28;20492;-67
2022/12/24 06:25:00;;;;;;;1.63;0.20;;;;;;;8.61;100.00;98239.19;5049733;28;20045;-69
2022/12/24 06:27:45;;;;;;;1.20;0.28;;;;;;;8.57;100.00;98255.97;5050994;28;20055;-69
2022/12/24 06:30:31;;;;;;;1.75;0.70;;;;;;;8.59;100.00;98267.16;5050388;28;20047;-69
2022/12/24 06:33:18;;;;;;;4.32;1.48;;;;;;;8.59;100.00;98282.00;5050675;28;20041;-68
2022/12/24 06:36:06;;;;;;;0.95;0.38;;;;;;;8.58;100.00;98282.94;5049742;28;20055;-67
2022/12/24 06:38:53;;;;;;;2.33;0.38;;;;;;;8.62;100.00;98287.84;5050787;28;20083;-69
2022/12/24 06:41:37;;;;;;;1.95;0.30;;;;;;;8.67;100.00;98304.97;5049721;28;20102;-69
2022/12/24 06:44:22;;;;;;;1.00;0.30;;;;;;;8.64;100.00;98279.91;5049218;28;20041;-69
2022/12/24 06:47:07;;;;;;;1.15;0.30;;;;;;;8.69;100.00;98284.81;5049684;28;20696;-69
2022/12/24 06:49:52;;;;;;;1.08;0.20;;;;;;;8.66;100.00;98296.31;5021541;28;20041;-69
2022/12/24 06:52:37;;;;;;;2.70;0.52;;;;;;;8.70;100.00;98302.97;5046850;28;20048;-68
2022/12/24 06:55:22;;;;;;;0.77;0.30;;;;;;;8.71;100.00;98303.81;5041904;28;20068;-67
2022/12/24 06:58:07;;;;;;;2.03;0.57;;;;;;;8.73;100.00;98308.00;5037107;28;20484;-69
2022/12/24 07:00:51;;;;;;;1.10;0.30;;;;;;;8.71;100.00;98303.81;5048988;28;20403;-67
2022/12/24 07:03:36;;;;;;;1.33;0.40;;;;;;;8.71;100.00;98309.06;5050438;28;20048;-68
2022/12/24 07:06:25;;;;;;;1.38;0.30;;;;;;;8.72;100.00;98310.72;5038512;28;20524;-68
2022/12/24 07:09:12;;;;;;;2.95;0.73;;;;;;;8.70;100.00;98310.81;5048848;28;20424;-69
2022/12/24 07:11:57;;;;;;;1.42;0.30;;;;;;;8.69;100.00;98311.78;5049335;28;20047;-68
2022/12/24 07:14:43;;;;;;;1.35;0.30;;;;;;;8.64;100.00;98313.84;5039005;28;20037;-68
2022/12/24 07:17:28;;;;;;;1.05;0.47;;;;;;;8.60;100.00;98323.66;5049786;28;20518;-68
2022/12/24 07:20:13;;;;;;;1.05;0.32;;;;;;;8.60;100.00;98335.91;5050070;28;20120;-68
2022/12/24 07:22:58;;;;;;;2.17;0.30;;;;;;;8.60;100.00;98338.50;5050327;28;20124;-68
2022/12/24 07:25:43;;;;;;;0.82;0.40;;;;;;;8.57;100.00;98339.53;5050105;28;20045;-68
2022/12/24 07:28:29;;;;;;;1.38;0.32;;;;;;;8.41;100.00;98350.13;5049439;28;20049;-67
2022/12/24 07:31:13;;;;;;;1.10;0.30;;;;;;;8.31;100.00;98354.28;5054808;28;20085;-68
2022/12/24 07:33:58;;;;;;;1.65;0.45;;;;;;;8.28;100.00;98354.47;5041770;28;20049;-68
2022/12/24 07:36:43;;;;;;;0.50;0.30;;;;;;;8.31;100.00;98364.72;5053412;28;20049;-67
2022/12/24 07:39:28;;;;;;;1.25;0.40;;;;;;;8.39;100.00;98378.09;5053623;28;20053;-67
2022/12/24 07:42:12;;;;;;;1.38;0.40;;;;;;;8.48;100.00;98374.91;5048649;28;20037;-68
2022/12/24 07:44:58;;;;;;;2.42;0.57;;;;;;;8.52;100.00;98391.19;5052471;28;20151;-68
2022/12/24 07:47:42;;;;;;;1.00;0.40;;;;;;;8.51;100.00;98379.09;5052402;28;20045;-68
2022/12/24 07:50:27;;;;;;;2.00;0.93;;;;;;;8.43;100.00;98376.13;5034034;28;20072;-68
2022/12/24 07:53:11;;;;;;;1.77;0.40;;;;;;;8.46;100.00;98379.41;5040046;28;20041;-68
2022/12/24 07:55:57;;;;;;;0.98;0.40;;;;;;;8.48;100.00;98367.09;5038407;28;20045;-68
2022/12/24 07:58:42;;;;;;;1.00;0.20;;;;;;;8.90;100.00;98380.91;5053672;28;20049;-69
2022/12/24 08:01:26;;;;;;;3.33;0.50;;;;;;;9.14;100.00;98395.88;5052621;28;20043;-68
2022/12/24 08:04:11;;;;;;;1.30;0.38;;;;;;;9.10;100.00;98396.09;5051914;28;20047;-68
2022/12/24 08:06:56;;;;;;;1.30;0.50;;;;;;;9.09;100.00;98398.81;5053245;28;20045;-68
2022/12/24 08:09:41;;;;;;;0.93;0.50;;;;;;;8.98;100.00;98403.00;5052273;28;20060;-68
2022/12/24 08:12:26;;;;;;;1.55;0.60;;;;;;;8.97;100.00;98401.31;5053018;28;20045;-68
2022/12/24 08:15:11;;;;;;;1.15;0.45;;;;;;;8.99;100.00;98412.50;5053429;28;20053;-68
2022/12/24 08:17:56;;;;;;;1.67;0.40;;;;;;;9.29;99.05;98427.94;5052120;28;20045;-68
2022/12/24 08:20:40;;;;;;;1.23;0.50;;;;;;;9.65;97.85;98433.34;5053236;28;20041;-68
2022/12/24 08:23:26;;;;;;;1.83;0.40;;;;;;;9.75;96.89;98437.00;5051808;28;20041;-67
2022/12/24 08:26:11;;;;;;;1.08;0.35;;;;;;;9.71;94.58;98431.16;5053258;28;20052;-68
2022/12/24 08:28:55;;;;;;;1.15;0.45;;;;;;;9.92;94.30;98446.25;5052843;28;20115;-68
2022/12/24 08:31:41;;;;;;;3.22;0.68;;;;;;;10.23;91.34;98461.59;5052668;28;20052;-68
2022/12/24 08:34:26;;;;;;;1.85;0.40;;;;;;;10.58;89.57;98446.88;5037822;28;20121;-68
2022/12/24 08:37:10;;;;;;;1.52;0.40;;;;;;;10.45;89.49;98450.38;5053029;28;20488;-69
2022/12/24 08:39:55;;;;;;;2.50;0.40;;;;;;;10.27;90.42;98454.31;5052119;28;20041;-69
2022/12/24 08:42:39;;;;;;;2.17;0.60;;;;;;;10.08;91.92;98450.41;5052468;28;20140;-68
2022/12/24 08:45:24;;;;;;;1.17;0.50;;;;;;;10.01;90.65;98459.63;5042113;28;20507;-68
2022/12/24 08:48:11;;;;;;;2.25;0.60;;;;;;;10.02;93.14;98461.34;5052528;28;20555;-68
2022/12/24 08:50:56;;;;;;;1.42;0.35;;;;;;;10.37;93.62;98468.44;5078332;28;20098;-67
2022/12/24 08:53:41;;;;;;;2.00;0.60;;;;;;;10.22;93.03;98476.44;5051518;28;20136;-67
2022/12/24 08:56:25;;;;;;;2.08;0.55;;;;;;;10.18;91.17;98485.47;5052614;28;20045;-68
2022/12/24 08:59:13;;;;;;;2.50;0.52;;;;;;;10.12;92.33;98495.53;5051368;28;20122;-68
2022/12/24 09:01:58;;;;;;;1.48;0.60;;;;;;;10.34;90.33;98487.81;5052416;28;20124;-68
2022/12/24 09:04:42;;;;;;;1.15;0.40;;;;;;;10.57;89.55;98497.59;5041459;28;20056;-69
2022/12/24 09:07:27;;;;;;;2.13;0.50;;;;;;;11.00;85.76;98490.16;5051719;28;20488;-67
2022/12/24 09:10:12;;;;;;;1.80;0.55;;;;;;;12.01;81.47;98502.63;5052192;28;20110;-68
2022/12/24 09:13:00;;;;;;;1.40;0.45;;;;;;;12.34;78.58;98500.09;5039885;28;20065;-68
2022/12/24 09:15:53;;;;;;;2.42;0.30;;;;;;;12.37;77.47;98495.41;5023870;28;20037;-68
2022/12/24 09:18:38;;;;;;;0.80;0.35;;;;;;;12.35;80.63;98499.13;5050810;28;20048;-67
2022/12/24 09:21:23;;;;;;;0.77;0.40;;;;;;;12.33;80.68;98509.78;5051039;28;20116;-67
2022/12/24 09:24:07;;;;;;;2.15;0.50;;;;;;;12.13;79.66;98513.97;5036672;28;20036;-68
2022/12/24 09:26:52;;;;;;;0.60;0.30;;;;;;;11.96;79.85;98510.88;5051653;28;20065;-67
2022/12/24 09:29:39;;;;;;;2.35;0.43;;;;;;;12.13;82.14;98514.81;5040629;28;20037;-68
2022/12/24 09:32:24;;;;;;;2.58;0.30;;;;;;;11.83;81.69;98516.25;5030936;28;20422;-67
2022/12/24 09:35:08;;;;;;;3.75;0.52;;;;;;;11.68;84.12;98508.63;5047860;28;20037;-68
2022/12/24 09:38:01;;;;;;;2.08;0.47;;;;;;;11.80;85.64;98503.38;5050442;28;20615;-67
2022/12/24 09:40:47;;;;;;;1.45;0.50;;;;;;;11.89;82.38;98515.78;5042613;28;20083;-67
2022/12/24 09:43:33;;;;;;;1.23;0.40;;;;;;;12.25;85.02;98512.19;5051438;28;20033;-67
2022/12/24 09:46:26;;;;;;;0.98;0.38;;;;;;;12.38;83.95;98517.28;5050446;28;20045;-68
2022/12/24 09:49:19;;;;;;;2.25;0.65;;;;;;;13.11;77.32;98507.91;5050183;28;20376;-68
2022/12/24 09:52:09;;;;;;;3.55;0.57;;;;;;;12.94;83.16;98518.88;5050184;28;20514;-68
2022/12/24 09:55:02;;;;;;;1.85;0.47;;;;;;;12.72;78.76;98513.72;5038249;28;20049;-68
2022/12/24 09:57:49;;;;;;;1.48;0.30;;;;;;;13.14;80.54;98516.38;5051292;28;20041;-68
2022/12/24 10:00:36;;;;;;;1.90;0.60;;;;;;;13.14;78.92;98521.66;5051167;28;20124;-69
2022/12/24 10:03:21;;;;;;;2.45;0.43;;;;;;;13.27;79.89;98520.63;5051496;28;20041;-67
2022/12/24 10:06:21;;;;;;;0.98;0.30;;;;;;;13.38;80.83;98522.38;5038564;28;20037;-68
2022/12/24 10:09:14;;;;;;;2.50;0.50;;;;;;;13.37;78.39;98520.69;5049513;28;20433;-68
2022/12/24 10:12:12;;;;;;;0.80;0.30;;;;;;;13.87;77.20;98522.63;5051743;28;20489;-68
2022/12/24 10:15:06;;;;;;;1.55;0.50;;;;;;;13.01;82.30;98527.09;5048549;28;20044;-68
2022/12/24 10:17:57;;;;;;;1.23;0.40;;;;;;;13.31;85.87;98529.94;5043292;28;20044;-68
2022/12/24 10:21:01;;;;;;;1.35;0.50;;;;;;;14.16;79.62;98529.81;5026620;28;20108;-68
2022/12/24 10:24:02;;;;;;;0.80;0.30;;;;;;;14.85;75.04;98529.09;5049546;28;20381;-69
2022/12/24 10:26:59;;;;;;;1.83;0.40;;;;;;;14.82;77.63;98539.91;5050247;28;20090;-69
2022/12/24 10:29:48;;;;;;;2.45;0.52;;;;;;;15.31;71.83;98544.31;5049588;28;20496;-69
2022/12/24 10:32:34;;;;;;;1.55;0.30;;;;;;;15.11;77.22;98544.34;5043155;28;20129;-69
2022/12/24 10:35:24;;;;;;;1.55;0.40;;;;;;;15.19;71.58;98537.56;5048446;28;20353;-70
2022/12/24 10:38:12;;;;;;;1.38;0.40;;;;;;;16.07;71.41;98548.88;5050389;28;20048;-71
2022/12/24 10:40:59;;;;;;;1.73;0.38;;;;;;;15.70;69.74;98558.44;5035419;28;20103;-70
2022/12/24 10:43:46;;;;;;;1.63;0.35;;;;;;;16.17;72.34;98557.59;5042393;28;20098;-70
2022/12/24 10:46:36;;;;;;;1.08;0.32;;;;;;;16.18;72.66;98550.47;5050035;28;20057;-70
2022/12/24 10:50:03;;;;;;;1.02;0.40;;;;;;;15.47;70.33;98558.75;5035451;28;20037;-70
2022/12/24 10:52:52;;;;;;;1.77;0.43;;;;;;;16.24;68.70;98561.28;5024534;28;20054;-70
2022/12/24 10:55:36;;;;;;;1.65;0.30;;;;;;;16.20;69.80;98559.09;5027220;28;20053;-70
2022/12/24 10:58:21;;;;;;;1.30;0.40;;;;;;;16.38;65.75;98552.06;5013977;28;20061;-71
2022/12/24 11:01:05;;;;;;;0.88;0.30;;;;;;;16.35;70.66;98554.16;5014341;28;20049;-71
2022/12/24 11:04:03;;;;;;;0.68;0.30;;;;;;;15.49;73.38;98547.06;5027272;28;20160;-71
2022/12/24 11:06:52;;;;;;;1.33;0.40;;;;;;;14.94;74.28;98551.16;5027770;28;20905;-72
2022/12/24 11:09:40;;;;;;;0.45;0.30;;;;;;;15.10;69.71;98550.59;5027180;28;20144;-72
2022/12/24 11:12:31;;;;;;;1.60;0.38;;;;;;;15.90;72.19;98548.63;5027097;28;20139;-72
2022/12/24 11:15:17;;;;;;;1.25;0.63;;;;;;;16.33;67.09;98541.09;5027609;28;20072;-73
2022/12/24 11:18:13;;;;;;;0.70;0.20;;;;;;;16.96;67.41;98561.53;5028102;28;20048;-73
2022/12/24 11:20:59;;;;;;;1.85;0.32;;;;;;;16.65;64.07;98548.69;5027508;28;20482;-74
2022/12/24 11:23:55;;;;;;;1.23;0.20;;;;;;;16.09;64.93;98566.22;5011088;28;20045;-72
2022/12/24 11:26:42;;;;;;;2.97;0.52;;;;;;;15.82;64.08;98567.84;5031360;28;20566;-73
2022/12/24 11:29:27;;;;;;;1.00;0.47;;;;;;;16.12;64.99;98567.75;5049155;28;20065;-73
2022/12/24 11:32:21;;;;;;;1.90;0.40;;;;;;;16.40;63.70;98573.06;5049948;28;20048;-74
2022/12/24 11:35:14;;;;;;;2.22;0.68;;;;;;;17.07;63.85;98565.78;5049966;28;20033;-74
2022/12/24 11:38:01;;;;;;;2.05;0.40;;;;;;;16.75;65.00;98589.09;5049799;28;20404;-74
2022/12/24 11:40:50;;;;;;;1.15;0.38;;;;;;;17.09;67.88;98575.25;5048510;28;20041;-75
2022/12/24 11:43:43;;;;;;;3.33;0.32;;;;;;;17.99;60.46;98561.94;5037152;28;20072;-75
2022/12/24 11:46:37;;;;;;;0.43;0.30;;;;;;;17.09;58.05;98567.31;5048420;28;20057;-75
2022/12/24 11:49:31;;;;;;;1.58;0.30;;;;;;;16.47;64.63;98560.88;5050544;28;20045;-75
2022/12/24 11:52:22;;;;;;;1.55;0.68;;;;;;;16.38;65.80;98565.28;5052459;28;20135;-75
2022/12/24 11:55:22;;;;;;;1.23;0.27;;;;;;;16.79;62.82;98566.69;5039498;28;20511;-73
2022/12/24 11:58:34;;;;;;;1.73;0.30;;;;;;;17.32;60.44;98563.34;5038993;28;20297;-75
2022/12/24 12:01:36;;;;;;;0.95;0.30;;;;;;;17.83;59.05;98555.56;5049728;28;20378;-76
2022/12/24 12:04:26;;;;;;;3.15;0.40;;;;;;;17.15;63.01;98565.03;5048250;28;20082;-75
2022/12/24 12:07:17;;;;;;;1.75;0.32;;;;;;;17.08;58.56;98570.94;5048780;28;20174;-74
2022/12/24 12:10:08;;;;;;;2.83;0.50;;;;;;;17.39;66.33;98576.78;5048594;28;20438;-77
2022/12/24 12:13:03;;;;;;;2.08;0.60;;;;;;;17.96;62.23;98573.69;5049523;28;20052;-75
2022/12/24 12:16:03;;;;;;;1.20;0.38;;;;;;;17.81;59.30;98584.03;5047101;28;20051;-76
2022/12/24 12:18:58;;;;;;;2.88;0.30;;;;;;;18.94;62.02;98581.31;5053436;28;20093;-75
2022/12/24 12:21:47;;;;;;;0.75;0.30;;;;;;;19.99;54.86;98585.22;5080708;28;20103;-76
2022/12/24 12:24:46;;;;;;;1.77;0.50;;;;;;;18.65;57.25;98587.88;5042870;28;20103;-75
2022/12/24 12:27:36;;;;;;;1.27;0.35;;;;;;;16.93;64.88;98602.34;5040390;28;20182;-76
2022/12/24 12:30:23;;;;;;;1.38;0.40;;;;;;;16.95;62.60;98600.41;5051570;28;20526;-74
2022/12/24 12:33:21;;;;;;;2.03;0.45;;;;;;;16.42;64.06;98608.09;5052948;28;20079;-73
2022/12/24 12:36:09;;;;;;;2.85;0.75;;;;;;;14.92;69.02;98599.75;5065844;28;20033;-74
2022/12/24 12:38:53;;;;;;;2.65;0.70;;;;;;;14.85;68.97;98604.75;5048170;28;20044;-72
2022/12/24 12:42:04;;;;;;;1.35;0.40;;;;;;;14.82;72.04;98602.38;5052390;28;20450;-70
2022/12/24 12:44:58;;;;;;;1.23;0.43;;;;;;;14.94;69.03;98603.91;5052588;28;20124;-70
2022/12/24 12:47:42;;;;;;;1.77;0.57;;;;;;;14.78;71.42;98605.28;5053070;28;20045;-72
2022/12/24 12:50:56;;;;;;;2.25;0.60;;;;;;;14.93;67.87;98618.09;5053117;28;20041;-72
2022/12/24 12:53:46;;;;;;;2.53;0.70;;;;;;;14.23;71.81;98613.56;5042994;28;20045;-71
2022/12/24 12:56:36;;;;;;;1.90;0.50;;;;;;;14.03;71.21;98616.13;5051684;28;20041;-71
2022/12/24 12:59:23;;;;;;;3.90;0.57;;;;;;;14.37;70.35;98613.22;5051951;28;20060;-70
2022/12/24 13:02:10;;;;;;;0.88;0.30;;;;;;;14.95;69.72;98617.94;5052587;28;20132;-70
2022/12/24 13:05:32;;;;;;;0.90;0.40;;;;;;;15.12;67.30;98621.69;5051461;28;20068;-72
2022/12/24 13:08:36;;;;;;;1.70;0.60;;;;;;;14.00;70.00;98611.13;5044151;28;20041;-70
2022/12/24 13:11:37;;;;;;;2.05;0.40;;;;;;;14.22;71.05;98635.59;5050855;28;20450;-71
2022/12/24 13:14:43;;;;;;;1.73;0.40;;;;;;;14.08;70.15;98647.31;5051894;28;20067;-72
2022/12/24 13:18:03;;;;;;;3.60;0.82;;;;;;;14.77;71.38;98642.31;5015867;28;20505;-71